Time;durP1;ratioP1;P1;durP2;ratioP2;P2;SDS_P1;SDS_P2;PMS_P1;PMS_P2;Temp;Humidity;BMP_temperature;BMP_pressure;BME280_temperature;BME280_humidity;BME280_pressure;Samples;Min_cycle;Max_cycle;Signal;HPM_P1;HPM_P2
2023/05/09 00:01:45;;;;;;;19.73;3.42;;;;;;;;;;5048822;28;20782;-49
2023/05/09 00:04:14;;;;;;;15.38;3.70;;;;;;;;;;5041548;28;20547;-46
2023/05/09 00:06:42;;;;;;;15.23;4.30;;;;;;;;;;5043135;28;20054;-47
2023/05/09 00:09:10;;;;;;;14.90;3.78;;;;;;;;;;5051715;28;20040;-45
2023/05/09 00:11:38;;;;;;;17.87;3.77;;;;;;;;;;5038581;28;20908;-47
2023/05/09 00:14:06;;;;;;;15.68;3.65;;;;;;;;;;5053762;28;20474;-50
2023/05/09 00:16:35;;;;;;;15.68;3.90;;;;;;;;;;5046167;28;20132;-45
2023/05/09 00:19:04;;;;;;;16.08;3.95;;;;;;;;;;5042456;28;20043;-45
2023/05/09 00:21:33;;;;;;;19.45;3.80;;;;;;;;;;5047014;28;20112;-49
2023/05/09 00:24:00;;;;;;;15.07;3.53;;;;;;;;;;5050001;28;20494;-50
2023/05/09 00:26:28;;;;;;;16.02;3.72;;;;;;;;;;5046055;28;20051;-46
2023/05/09 00:28:56;;;;;;;14.90;3.75;;;;;;;;;;5054883;28;20128;-47
2023/05/09 00:31:23;;;;;;;16.05;3.53;;;;;;;;;;5038994;28;20597;-45
2023/05/09 00:33:51;;;;;;;17.10;3.50;;;;;;;;;;5038790;28;20025;-48
2023/05/09 00:36:20;;;;;;;14.87;4.47;;;;;;;;;;5048166;28;20119;-47
2023/05/09 00:38:47;;;;;;;13.18;3.80;;;;;;;;;;5048908;28;20319;-47
2023/05/09 00:41:15;;;;;;;15.32;3.95;;;;;;;;;;5051423;28;20040;-47
2023/05/09 00:43:43;;;;;;;12.80;3.72;;;;;;;;;;5050971;28;20037;-45
2023/05/09 00:46:10;;;;;;;13.90;4.18;;;;;;;;;;5053833;28;20044;-46
2023/05/09 00:48:38;;;;;;;11.50;3.33;;;;;;;;;;5047596;28;20043;-48
2023/05/09 00:51:05;;;;;;;12.63;4.30;;;;;;;;;;5048387;28;20036;-48
2023/05/09 00:53:35;;;;;;;12.80;4.15;;;;;;;;;;5048046;28;20032;-46
2023/05/09 00:56:03;;;;;;;14.25;4.68;;;;;;;;;;5044633;28;20093;-45
2023/05/09 00:58:31;;;;;;;14.93;4.57;;;;;;;;;;5039812;28;20055;-46
2023/05/09 01:01:01;;;;;;;16.77;4.60;;;;;;;;;;5054740;28;20044;-47
2023/05/09 01:03:28;;;;;;;14.68;3.85;;;;;;;;;;5048983;28;20062;-48
2023/05/09 01:06:03;;;;;;;13.98;4.55;;;;;;;;;;5043413;28;20447;-47
2023/05/09 01:08:37;;;;;;;16.35;4.80;;;;;;;;;;5041960;28;20115;-46
2023/05/09 01:11:10;;;;;;;13.63;3.92;;;;;;;;;;5054352;28;20120;-50
2023/05/09 01:13:41;;;;;;;15.90;4.73;;;;;;;;;;5053456;28;20045;-51
2023/05/09 01:16:14;;;;;;;13.82;3.95;;;;;;;;;;5061262;28;20043;-49
2023/05/09 01:18:43;;;;;;;17.70;4.60;;;;;;;;;;5045762;28;20041;-48
2023/05/09 01:21:13;;;;;;;12.90;4.10;;;;;;;;;;5048571;28;20056;-49
2023/05/09 01:23:59;;;;;;;12.95;4.45;;;;;;;;;;5053355;28;20044;-47
2023/05/09 01:26:36;;;;;;;13.37;3.70;;;;;;;;;;5048479;28;20075;-47
2023/05/09 01:29:31;;;;;;;11.77;3.83;;;;;;;;;;5038900;28;20102;-45
2023/05/09 01:32:01;;;;;;;10.73;3.80;;;;;;;;;;5051368;28;20121;-46
2023/05/09 01:34:30;;;;;;;11.85;3.95;;;;;;;;;;5045697;28;20080;-46
2023/05/09 01:36:59;;;;;;;13.70;3.50;;;;;;;;;;5036432;28;20080;-49
2023/05/09 01:39:28;;;;;;;10.53;3.50;;;;;;;;;;5051067;28;20051;-47
2023/05/09 01:41:57;;;;;;;9.50;3.05;;;;;;;;;;5053196;28;20132;-47
2023/05/09 01:44:25;;;;;;;12.30;3.15;;;;;;;;;;5042863;28;20072;-49
2023/05/09 01:46:56;;;;;;;13.75;3.92;;;;;;;;;;5034753;28;20054;-47
2023/05/09 01:49:23;;;;;;;10.85;3.28;;;;;;;;;;5046234;28;20048;-48
2023/05/09 01:52:11;;;;;;;12.10;3.47;;;;;;;;;;5048439;28;20044;-47
2023/05/09 01:54:40;;;;;;;11.10;3.50;;;;;;;;;;5047156;28;20048;-49
2023/05/09 01:57:08;;;;;;;10.43;3.15;;;;;;;;;;5077400;28;20041;-46
2023/05/09 01:59:35;;;;;;;16.75;3.28;;;;;;;;;;5043647;28;20082;-47
2023/05/09 02:02:05;;;;;;;12.13;2.75;;;;;;;;;;5042502;28;20384;-46
2023/05/09 02:04:34;;;;;;;14.70;2.77;;;;;;;;;;5041296;28;20037;-46
2023/05/09 02:07:02;;;;;;;9.02;2.50;;;;;;;;;;5046531;28;20519;-47
2023/05/09 02:09:30;;;;;;;8.75;2.50;;;;;;;;;;5052171;28;20070;-46
2023/05/09 02:11:57;;;;;;;8.85;2.10;;;;;;;;;;5048610;28;20040;-46
2023/05/09 02:14:25;;;;;;;8.70;2.40;;;;;;;;;;5044550;28;20246;-48
2023/05/09 02:16:53;;;;;;;6.57;1.83;;;;;;;;;;5050685;28;20531;-47
2023/05/09 02:19:22;;;;;;;8.73;2.13;;;;;;;;;;5038739;28;20550;-46
2023/05/09 02:21:50;;;;;;;8.02;2.22;;;;;;;;;;5050539;28;20472;-47
2023/05/09 02:24:18;;;;;;;7.72;2.10;;;;;;;;;;5054625;28;20040;-46
2023/05/09 02:26:47;;;;;;;8.43;2.55;;;;;;;;;;5048782;28;20052;-47
2023/05/09 02:29:16;;;;;;;9.27;2.53;;;;;;;;;;5043700;28;20091;-48
2023/05/09 02:31:44;;;;;;;8.10;1.90;;;;;;;;;;5050661;28;20040;-48
2023/05/09 02:34:13;;;;;;;7.75;2.13;;;;;;;;;;5035500;28;20644;-50
2023/05/09 02:36:42;;;;;;;6.53;1.60;;;;;;;;;;5047233;28;20823;-47
2023/05/09 02:39:11;;;;;;;9.82;1.90;;;;;;;;;;5047564;28;20548;-46
2023/05/09 02:41:38;;;;;;;7.33;1.90;;;;;;;;;;5038930;28;20705;-45
2023/05/09 02:44:06;;;;;;;7.82;1.83;;;;;;;;;;5046658;28;20076;-47
2023/05/09 02:46:33;;;;;;;8.27;1.80;;;;;;;;;;5063829;28;20043;-45
2023/05/09 02:49:01;;;;;;;6.25;1.55;;;;;;;;;;5033577;28;20492;-46
2023/05/09 02:51:29;;;;;;;5.07;1.25;;;;;;;;;;5046862;28;20040;-49
2023/05/09 02:53:58;;;;;;;9.03;1.50;;;;;;;;;;5044456;28;20229;-46
2023/05/09 02:56:25;;;;;;;6.75;2.15;;;;;;;;;;5044019;28;20086;-48
2023/05/09 02:58:53;;;;;;;7.80;2.05;;;;;;;;;;5049232;28;20115;-45
2023/05/09 03:01:21;;;;;;;8.90;1.80;;;;;;;;;;5041137;28;20060;-46
2023/05/09 03:03:48;;;;;;;7.43;2.17;;;;;;;;;;5029418;28;20036;-46
2023/05/09 03:06:16;;;;;;;7.07;1.10;;;;;;;;;;5054890;28;20037;-47
2023/05/09 03:08:44;;;;;;;6.88;2.15;;;;;;;;;;5050610;28;20068;-45
2023/05/09 03:11:13;;;;;;;5.97;1.70;;;;;;;;;;5045037;28;20051;-45
2023/05/09 03:13:41;;;;;;;7.60;2.22;;;;;;;;;;5053266;28;20490;-48
2023/05/09 03:16:10;;;;;;;6.30;2.00;;;;;;;;;;5053504;28;20525;-48
2023/05/09 03:18:38;;;;;;;6.50;1.90;;;;;;;;;;5038007;28;20116;-45
2023/05/09 03:21:06;;;;;;;8.27;2.35;;;;;;;;;;5022922;28;20836;-45
2023/05/09 03:23:34;;;;;;;9.55;3.10;;;;;;;;;;5053809;28;20037;-47
2023/05/09 03:26:01;;;;;;;8.18;2.78;;;;;;;;;;5035272;28;20041;-45
2023/05/09 03:28:31;;;;;;;10.13;2.38;;;;;;;;;;5039449;28;20036;-47
2023/05/09 03:30:59;;;;;;;7.60;2.00;;;;;;;;;;5046016;28;20047;-45
2023/05/09 03:33:26;;;;;;;7.82;2.35;;;;;;;;;;5038045;28;20064;-51
2023/05/09 03:35:54;;;;;;;7.38;2.15;;;;;;;;;;5045296;28;20580;-47
2023/05/09 03:38:23;;;;;;;8.75;2.60;;;;;;;;;;5045171;28;20127;-47
2023/05/09 03:40:50;;;;;;;9.85;2.45;;;;;;;;;;5048511;28;20033;-49
2023/05/09 03:43:18;;;;;;;8.70;2.70;;;;;;;;;;5050032;28;20040;-46
2023/05/09 03:45:47;;;;;;;7.60;2.28;;;;;;;;;;5044013;28;20111;-51
2023/05/09 03:48:15;;;;;;;8.05;2.22;;;;;;;;;;5046998;28;20106;-46
2023/05/09 03:50:42;;;;;;;7.40;2.00;;;;;;;;;;5048561;28;20036;-48
2023/05/09 03:53:10;;;;;;;7.57;2.40;;;;;;;;;;5047154;28;20569;-47
2023/05/09 03:55:38;;;;;;;7.33;1.70;;;;;;;;;;5048882;28;20127;-46
2023/05/09 03:58:06;;;;;;;9.18;2.55;;;;;;;;;;5049775;28;20110;-47
2023/05/09 04:00:34;;;;;;;7.38;1.83;;;;;;;;;;5045535;28;20106;-46
2023/05/09 04:03:03;;;;;;;7.22;1.88;;;;;;;;;;5041088;28;20040;-46
2023/05/09 04:05:34;;;;;;;6.80;2.20;;;;;;;;;;5050466;28;20040;-49
2023/05/09 04:08:01;;;;;;;9.03;2.10;;;;;;;;;;5053171;28;20545;-48
2023/05/09 04:10:30;;;;;;;7.13;1.73;;;;;;;;;;5044644;28;20045;-46
2023/05/09 04:12:58;;;;;;;8.25;2.08;;;;;;;;;;5054597;28;20093;-49
2023/05/09 04:15:25;;;;;;;8.75;2.17;;;;;;;;;;5055312;28;20045;-46
2023/05/09 04:17:53;;;;;;;7.25;2.00;;;;;;;;;;5051703;28;20119;-46
2023/05/09 04:20:23;;;;;;;9.10;2.07;;;;;;;;;;5049890;28;20045;-50
2023/05/09 04:22:51;;;;;;;9.10;2.55;;;;;;;;;;5050536;28;20542;-46
2023/05/09 04:25:19;;;;;;;8.70;2.30;;;;;;;;;;5046237;28;20738;-48
2023/05/09 04:27:47;;;;;;;8.25;2.28;;;;;;;;;;5083978;28;20127;-49
2023/05/09 04:30:15;;;;;;;9.10;2.30;;;;;;;;;;5050893;28;20127;-46
2023/05/09 04:32:44;;;;;;;8.43;2.40;;;;;;;;;;5054865;28;20036;-46
2023/05/09 04:35:13;;;;;;;6.93;1.80;;;;;;;;;;5034055;28;20049;-45
2023/05/09 04:37:45;;;;;;;8.95;2.03;;;;;;;;;;5054535;28;20566;-47
2023/05/09 04:40:13;;;;;;;6.78;1.90;;;;;;;;;;5045873;28;20089;-47
2023/05/09 04:42:41;;;;;;;8.57;2.10;;;;;;;;;;5039995;28;20110;-46
2023/05/09 04:45:10;;;;;;;11.23;2.50;;;;;;;;;;5048105;28;20037;-47
2023/05/09 04:47:38;;;;;;;8.68;2.58;;;;;;;;;;5053530;28;20039;-47
2023/05/09 04:50:06;;;;;;;11.20;2.63;;;;;;;;;;5052339;28;20135;-46
2023/05/09 04:52:37;;;;;;;9.30;2.08;;;;;;;;;;5042833;28;20082;-49
2023/05/09 04:55:06;;;;;;;10.27;2.40;;;;;;;;;;5045511;28;20115;-48
2023/05/09 04:57:34;;;;;;;7.77;2.40;;;;;;;;;;5046161;28;20068;-47
2023/05/09 05:00:02;;;;;;;10.10;2.60;;;;;;;;;;5030339;28;20040;-46
2023/05/09 05:02:30;;;;;;;10.40;2.78;;;;;;;;;;5037212;28;20098;-47
2023/05/09 05:04:58;;;;;;;7.65;2.30;;;;;;;;;;5043074;28;20040;-45
2023/05/09 05:07:39;;;;;;;12.32;2.63;;;;;;;;;;5043256;28;20060;-47
2023/05/09 05:10:09;;;;;;;8.47;2.63;;;;;;;;;;5047756;28;20851;-45
2023/05/09 05:12:36;;;;;;;10.88;2.28;;;;;;;;;;5051296;28;20040;-45
2023/05/09 05:15:04;;;;;;;8.40;2.72;;;;;;;;;;5037961;28;20037;-48
2023/05/09 05:17:32;;;;;;;9.27;2.33;;;;;;;;;;5041824;28;20032;-45
2023/05/09 05:20:00;;;;;;;11.25;2.35;;;;;;;;;;5051408;28;20060;-45
2023/05/09 05:22:27;;;;;;;7.47;2.30;;;;;;;;;;5033269;28;20888;-47
2023/05/09 05:24:58;;;;;;;11.05;2.15;;;;;;;;;;5044209;28;20043;-48
2023/05/09 05:27:27;;;;;;;6.25;1.90;;;;;;;;;;5044090;28;20114;-47
2023/05/09 05:29:55;;;;;;;8.45;2.50;;;;;;;;;;5055353;28;20047;-49
2023/05/09 05:32:22;;;;;;;11.18;2.22;;;;;;;;;;5040102;28;20045;-51
2023/05/09 05:34:50;;;;;;;10.23;2.40;;;;;;;;;;5050917;28;20139;-47
2023/05/09 05:37:18;;;;;;;8.30;2.83;;;;;;;;;;5046973;28;20040;-48
2023/05/09 05:39:45;;;;;;;14.35;2.88;;;;;;;;;;5082476;27;20076;-46
2023/05/09 05:42:13;;;;;;;10.02;2.60;;;;;;;;;;5029643;28;20663;-49
2023/05/09 05:44:42;;;;;;;9.32;2.78;;;;;;;;;;5053051;28;20106;-46
2023/05/09 05:47:10;;;;;;;8.23;2.50;;;;;;;;;;5076765;28;20045;-45
2023/05/09 05:49:38;;;;;;;10.50;3.00;;;;;;;;;;5049043;28;20056;-46
2023/05/09 05:52:05;;;;;;;8.68;2.30;;;;;;;;;;5028836;28;20498;-47
2023/05/09 05:54:33;;;;;;;9.13;2.88;;;;;;;;;;5050905;28;20502;-45
2023/05/09 05:57:01;;;;;;;12.63;3.17;;;;;;;;;;5035291;28;20491;-46
2023/05/09 05:59:29;;;;;;;14.03;3.20;;;;;;;;;;5039637;28;20033;-47
2023/05/09 06:01:57;;;;;;;10.90;2.85;;;;;;;;;;5078635;28;20116;-48
2023/05/09 06:04:26;;;;;;;12.02;3.47;;;;;;;;;;5031959;28;20051;-47
2023/05/09 06:06:54;;;;;;;11.27;3.15;;;;;;;;;;5053688;28;20123;-46
2023/05/09 06:09:22;;;;;;;13.07;3.97;;;;;;;;;;5041346;28;20135;-48
2023/05/09 06:11:54;;;;;;;13.57;4.40;;;;;;;;;;5047284;28;20131;-45
2023/05/09 06:14:21;;;;;;;9.85;2.97;;;;;;;;;;5050658;28;20064;-45
2023/05/09 06:16:49;;;;;;;13.45;3.63;;;;;;;;;;5045762;28;20506;-49
2023/05/09 06:19:18;;;;;;;11.32;3.20;;;;;;;;;;5034458;28;20076;-48
2023/05/09 06:21:46;;;;;;;14.45;3.58;;;;;;;;;;5041406;28;20036;-45
2023/05/09 06:24:14;;;;;;;12.00;2.90;;;;;;;;;;5045788;28;20464;-48
2023/05/09 06:27:01;;;;;;;12.65;3.65;;;;;;;;;;5037461;28;20041;-47
2023/05/09 06:29:29;;;;;;;11.05;3.13;;;;;;;;;;5048251;28;20051;-45
2023/05/09 06:31:56;;;;;;;10.80;3.33;;;;;;;;;;5041812;28;20033;-46
2023/05/09 06:34:25;;;;;;;11.27;3.30;;;;;;;;;;5042350;28;20041;-48
2023/05/09 06:36:53;;;;;;;14.60;2.83;;;;;;;;;;5042116;28;20052;-45
2023/05/09 06:39:21;;;;;;;10.10;2.75;;;;;;;;;;5045344;28;20043;-47
2023/05/09 06:41:48;;;;;;;12.02;3.22;;;;;;;;;;5042574;28;20152;-46
2023/05/09 06:44:16;;;;;;;15.82;2.97;;;;;;;;;;5048649;28;20159;-51
2023/05/09 06:46:44;;;;;;;13.07;2.85;;;;;;;;;;5052057;28;20056;-50
2023/05/09 06:49:13;;;;;;;13.77;3.50;;;;;;;;;;5047439;28;20040;-48
2023/05/09 06:51:43;;;;;;;16.48;3.30;;;;;;;;;;5040311;28;20064;-50
2023/05/09 06:54:13;;;;;;;13.68;3.20;;;;;;;;;;5041247;28;20049;-51
2023/05/09 06:56:41;;;;;;;15.70;3.08;;;;;;;;;;5033474;28;22160;-46
2023/05/09 06:59:12;;;;;;;14.25;3.40;;;;;;;;;;5053986;28;20112;-46
2023/05/09 07:01:39;;;;;;;15.73;4.20;;;;;;;;;;5043806;28;20053;-50
2023/05/09 07:04:07;;;;;;;17.48;4.47;;;;;;;;;;5052221;28;20083;-46
2023/05/09 07:06:35;;;;;;;14.82;3.92;;;;;;;;;;5045355;28;20043;-47
2023/05/09 07:09:05;;;;;;;15.93;4.30;;;;;;;;;;5050295;28;20517;-46
2023/05/09 07:11:34;;;;;;;13.80;4.13;;;;;;;;;;5077218;28;20048;-46
2023/05/09 07:14:01;;;;;;;17.20;4.33;;;;;;;;;;5035438;28;20041;-47
2023/05/09 07:16:29;;;;;;;17.77;4.95;;;;;;;;;;5050944;28;20066;-47
2023/05/09 07:18:57;;;;;;;17.98;5.07;;;;;;;;;;5034340;28;20048;-48
2023/05/09 07:21:25;;;;;;;19.63;5.35;;;;;;;;;;5045784;28;20044;-50
2023/05/09 07:23:52;;;;;;;16.35;4.65;;;;;;;;;;5046054;28;20075;-47
2023/05/09 07:26:21;;;;;;;18.63;5.43;;;;;;;;;;5054456;28;20072;-47
2023/05/09 07:28:49;;;;;;;18.92;5.10;;;;;;;;;;5046805;28;20441;-50
2023/05/09 07:31:17;;;;;;;18.50;4.57;;;;;;;;;;5050362;28;20122;-50
2023/05/09 07:33:44;;;;;;;20.77;6.00;;;;;;;;;;5046085;28;20059;-48
2023/05/09 07:36:13;;;;;;;17.65;4.80;;;;;;;;;;5045470;28;20056;-46
2023/05/09 07:38:41;;;;;;;22.93;4.63;;;;;;;;;;5039456;28;20591;-46
2023/05/09 07:41:09;;;;;;;20.15;4.43;;;;;;;;;;5046614;28;20111;-48
2023/05/09 07:43:38;;;;;;;12.43;4.18;;;;;;;;;;5039304;28;20060;-48
2023/05/09 07:46:05;;;;;;;16.55;4.07;;;;;;;;;;5036739;28;20043;-47
2023/05/09 07:48:33;;;;;;;16.85;4.13;;;;;;;;;;5041746;28;20040;-45
2023/05/09 07:51:01;;;;;;;14.17;3.43;;;;;;;;;;5033917;28;20047;-46
2023/05/09 07:53:28;;;;;;;14.27;3.85;;;;;;;;;;5031019;28;20109;-46
2023/05/09 07:55:57;;;;;;;15.30;3.17;;;;;;;;;;5035619;28;20082;-46
2023/05/09 07:58:25;;;;;;;12.57;3.70;;;;;;;;;;5040587;28;20036;-45
2023/05/09 08:00:55;;;;;;;10.43;3.60;;;;;;;;;;5036572;28;20562;-46
2023/05/09 08:03:22;;;;;;;11.27;2.83;;;;;;;;;;5032051;28;20043;-46
2023/05/09 08:05:52;;;;;;;10.85;2.83;;;;;;;;;;5035033;28;20487;-47
2023/05/09 08:08:21;;;;;;;10.65;2.67;;;;;;;;;;5040640;28;20546;-46
2023/05/09 08:10:48;;;;;;;9.70;2.90;;;;;;;;;;5029251;28;20048;-46
2023/05/09 08:13:17;;;;;;;8.63;2.50;;;;;;;;;;5032496;28;20094;-47
2023/05/09 08:15:46;;;;;;;8.20;2.00;;;;;;;;;;5035529;28;20569;-46
2023/05/09 08:18:15;;;;;;;8.68;2.65;;;;;;;;;;5026524;28;20048;-47
2023/05/09 08:20:43;;;;;;;9.05;2.53;;;;;;;;;;5034010;28;20066;-48
2023/05/09 08:23:10;;;;;;;11.93;2.95;;;;;;;;;;5029447;28;20119;-47
2023/05/09 08:25:38;;;;;;;10.77;3.10;;;;;;;;;;5034877;28;20159;-46
2023/05/09 08:28:05;;;;;;;9.90;3.00;;;;;;;;;;5042019;28;21411;-47
2023/05/09 08:30:33;;;;;;;8.88;2.88;;;;;;;;;;5025875;28;20044;-46
2023/05/09 08:33:01;;;;;;;7.85;2.53;;;;;;;;;;5030645;28;20119;-46
2023/05/09 08:35:30;;;;;;;8.82;2.72;;;;;;;;;;5037631;28;20481;-47
2023/05/09 08:37:58;;;;;;;9.75;3.50;;;;;;;;;;5034930;28;20135;-47
2023/05/09 08:40:26;;;;;;;8.23;2.63;;;;;;;;;;5031668;28;20667;-47
2023/05/09 08:42:54;;;;;;;11.88;3.53;;;;;;;;;;5040465;28;20036;-47
2023/05/09 08:45:25;;;;;;;11.57;3.70;;;;;;;;;;5030916;28;20072;-49
2023/05/09 08:47:53;;;;;;;10.02;3.30;;;;;;;;;;5037279;28;20094;-46
2023/05/09 08:50:22;;;;;;;11.45;3.90;;;;;;;;;;5028233;28;20037;-46
2023/05/09 08:52:51;;;;;;;12.10;3.83;;;;;;;;;;5032735;28;20122;-47
2023/05/09 08:55:19;;;;;;;15.05;3.80;;;;;;;;;;5035114;28;20044;-46
2023/05/09 08:57:47;;;;;;;11.93;4.50;;;;;;;;;;5040362;28;20041;-50
2023/05/09 09:00:16;;;;;;;16.83;4.22;;;;;;;;;;5023514;28;20041;-46
2023/05/09 09:02:47;;;;;;;12.27;4.47;;;;;;;;;;5032921;28;20044;-51
2023/05/09 09:05:15;;;;;;;12.30;3.93;;;;;;;;;;5032406;28;20056;-48
2023/05/09 09:08:06;;;;;;;13.77;4.63;;;;;;;;;;5031969;28;20052;-47
2023/05/09 09:10:34;;;;;;;15.85;5.68;;;;;;;;;;5035120;28;20123;-48
2023/05/09 09:13:03;;;;;;;16.10;4.85;;;;;;;;;;5046339;28;20090;-46
2023/05/09 09:15:34;;;;;;;14.05;4.57;;;;;;;;;;5033513;28;20055;-47
2023/05/09 09:18:05;;;;;;;12.27;3.73;;;;;;;;;;5028760;28;20090;-46
2023/05/09 09:20:37;;;;;;;15.27;4.20;;;;;;;;;;5033186;28;20063;-46
2023/05/09 09:23:09;;;;;;;13.30;4.45;;;;;;;;;;5032609;28;20083;-48
2023/05/09 09:25:36;;;;;;;12.60;4.13;;;;;;;;;;5032549;28;20048;-49
2023/05/09 09:28:05;;;;;;;11.43;3.20;;;;;;;;;;5030051;28;20045;-49
2023/05/09 09:30:33;;;;;;;9.93;3.53;;;;;;;;;;5028013;28;20102;-51
2023/05/09 09:33:02;;;;;;;8.98;3.15;;;;;;;;;;5033155;28;20045;-50
2023/05/09 09:35:38;;;;;;;7.65;2.55;;;;;;;;;;5038564;28;20060;-48
2023/05/09 09:38:07;;;;;;;7.50;2.47;;;;;;;;;;5031454;28;20135;-49
2023/05/09 09:40:38;;;;;;;5.93;1.73;;;;;;;;;;5037114;28;20040;-52
2023/05/09 09:43:06;;;;;;;5.90;1.43;;;;;;;;;;5050814;28;20123;-47
2023/05/09 09:45:35;;;;;;;7.13;1.33;;;;;;;;;;5045909;28;20518;-47
2023/05/09 09:48:05;;;;;;;5.03;1.48;;;;;;;;;;5053863;28;20041;-48
2023/05/09 09:50:34;;;;;;;7.05;1.30;;;;;;;;;;5042073;28;20028;-49
2023/05/09 09:53:02;;;;;;;4.88;1.40;;;;;;;;;;5056555;28;20094;-46
2023/05/09 09:55:31;;;;;;;7.20;1.60;;;;;;;;;;5053907;28;20635;-49
2023/05/09 09:57:59;;;;;;;5.93;1.33;;;;;;;;;;5050289;28;20094;-48
2023/05/09 10:00:27;;;;;;;5.40;1.42;;;;;;;;;;5091118;27;20600;-47
2023/05/09 10:02:55;;;;;;;6.30;1.70;;;;;;;;;;5045801;28;20067;-47
2023/05/09 10:05:24;;;;;;;8.13;1.92;;;;;;;;;;5048478;28;20091;-48
2023/05/09 10:07:54;;;;;;;5.70;1.40;;;;;;;;;;5053154;28;20560;-51
2023/05/09 10:10:22;;;;;;;6.97;1.70;;;;;;;;;;5045622;28;20048;-48
2023/05/09 10:12:53;;;;;;;6.75;1.98;;;;;;;;;;5045538;28;20091;-46
2023/05/09 10:15:21;;;;;;;6.63;1.73;;;;;;;;;;5052030;28;20063;-48
2023/05/09 10:17:52;;;;;;;7.95;1.65;;;;;;;;;;5033098;28;20050;-48
2023/05/09 10:20:20;;;;;;;6.53;1.87;;;;;;;;;;5049222;28;20041;-48
2023/05/09 10:22:48;;;;;;;8.18;1.63;;;;;;;;;;5046766;28;20186;-47
2023/05/09 10:25:19;;;;;;;5.30;1.60;;;;;;;;;;5057777;28;20181;-49
2023/05/09 10:27:47;;;;;;;4.30;1.17;;;;;;;;;;5039385;28;20037;-48
2023/05/09 10:30:19;;;;;;;6.20;1.23;;;;;;;;;;5061212;28;20037;-49
2023/05/09 10:32:48;;;;;;;3.27;0.77;;;;;;;;;;5049938;28;20495;-49
2023/05/09 10:35:16;;;;;;;3.40;0.88;;;;;;;;;;5044096;28;20047;-48
2023/05/09 10:37:45;;;;;;;4.20;0.98;;;;;;;;;;5042010;28;20466;-47
2023/05/09 10:40:15;;;;;;;4.78;1.05;;;;;;;;;;5045188;28;20044;-47
2023/05/09 10:42:44;;;;;;;6.28;0.85;;;;;;;;;;5051417;28;20131;-47
2023/05/09 10:45:13;;;;;;;7.17;1.47;;;;;;;;;;5052393;28;20052;-48
2023/05/09 10:47:43;;;;;;;5.00;1.25;;;;;;;;;;5042008;28;20037;-49
2023/05/09 10:50:12;;;;;;;6.13;1.35;;;;;;;;;;5031676;28;20491;-49
2023/05/09 10:52:59;;;;;;;4.55;1.30;;;;;;;;;;5054588;28;20048;-48
2023/05/09 10:55:35;;;;;;;6.63;1.25;;;;;;;;;;5045193;28;20102;-51
2023/05/09 10:58:18;;;;;;;3.80;0.90;;;;;;;;;;5041888;28;20033;-50
2023/05/09 11:00:46;;;;;;;7.05;1.88;;;;;;;;;;5046651;28;20068;-48
2023/05/09 11:03:17;;;;;;;5.35;1.65;;;;;;;;;;5037353;28;20415;-51
2023/05/09 11:05:46;;;;;;;3.83;1.23;;;;;;;;;;5044855;28;20035;-49
2023/05/09 11:08:20;;;;;;;6.30;1.35;;;;;;;;;;5034739;28;20045;-48
2023/05/09 11:10:48;;;;;;;5.47;0.87;;;;;;;;;;5032969;28;20041;-49
2023/05/09 11:13:20;;;;;;;3.83;0.88;;;;;;;;;;5079816;27;20083;-48
2023/05/09 11:15:51;;;;;;;4.72;1.02;;;;;;;;;;5037911;28;20486;-47
2023/05/09 11:18:20;;;;;;;4.55;1.23;;;;;;;;;;5045840;28;20049;-48
2023/05/09 11:20:50;;;;;;;4.32;1.00;;;;;;;;;;5035756;28;20047;-47
2023/05/09 11:23:18;;;;;;;4.03;1.20;;;;;;;;;;5039961;28;20041;-46
2023/05/09 11:25:47;;;;;;;3.88;0.82;;;;;;;;;;5041864;28;20036;-49
2023/05/09 11:28:26;;;;;;;3.50;0.70;;;;;;;;;;5051997;28;20501;-50
2023/05/09 11:31:08;;;;;;;2.55;0.70;;;;;;;;;;5035013;28;20215;-48
2023/05/09 11:33:39;;;;;;;4.32;0.85;;;;;;;;;;5049067;28;20133;-48
2023/05/09 11:36:26;;;;;;;3.17;0.63;;;;;;;;;;5051215;28;20347;-51
2023/05/09 11:39:01;;;;;;;3.90;0.70;;;;;;;;;;5032256;28;20127;-47
2023/05/09 11:41:29;;;;;;;2.83;0.50;;;;;;;;;;5053262;28;20036;-49
2023/05/09 11:43:58;;;;;;;2.85;0.60;;;;;;;;;;5042231;28;20045;-48
2023/05/09 11:46:26;;;;;;;3.45;1.00;;;;;;;;;;5034882;28;20091;-49
2023/05/09 11:48:56;;;;;;;3.00;0.50;;;;;;;;;;5040537;28;20041;-52
2023/05/09 11:51:25;;;;;;;3.67;0.80;;;;;;;;;;5053438;28;20145;-48
2023/05/09 11:53:53;;;;;;;3.25;0.70;;;;;;;;;;5040095;28;20047;-49
2023/05/09 11:56:22;;;;;;;2.70;0.70;;;;;;;;;;5082110;28;20101;-48
2023/05/09 11:58:50;;;;;;;3.38;0.95;;;;;;;;;;5040906;28;20033;-48
2023/05/09 12:01:18;;;;;;;2.67;0.70;;;;;;;;;;5036054;28;20068;-46
2023/05/09 12:03:48;;;;;;;3.03;0.65;;;;;;;;;;5048256;28;20029;-49
2023/05/09 12:06:18;;;;;;;4.88;0.60;;;;;;;;;;5049115;28;20036;-48
2023/05/09 12:08:46;;;;;;;3.17;0.95;;;;;;;;;;5058116;28;20075;-48
2023/05/09 12:11:14;;;;;;;5.00;0.90;;;;;;;;;;5039542;28;20300;-47
2023/05/09 12:13:47;;;;;;;4.00;0.90;;;;;;;;;;5056877;28;20055;-45
2023/05/09 12:16:15;;;;;;;4.28;0.70;;;;;;;;;;5054461;28;20557;-47
2023/05/09 12:18:47;;;;;;;3.00;0.77;;;;;;;;;;5046275;28;20064;-46
2023/05/09 12:21:15;;;;;;;3.40;0.98;;;;;;;;;;5049849;28;20115;-47
2023/05/09 12:24:02;;;;;;;4.25;0.90;;;;;;;;;;5050426;28;20036;-47
2023/05/09 12:26:30;;;;;;;3.00;0.83;;;;;;;;;;5050568;28;20044;-48
2023/05/09 12:28:57;;;;;;;2.97;0.80;;;;;;;;;;5049061;28;20040;-46
2023/05/09 12:31:25;;;;;;;2.85;0.60;;;;;;;;;;5079603;27;20064;-44
2023/05/09 12:33:53;;;;;;;4.30;0.80;;;;;;;;;;5041977;28;20483;-46
2023/05/09 12:36:21;;;;;;;4.88;0.65;;;;;;;;;;5046712;28;20048;-46
2023/05/09 12:38:52;;;;;;;2.70;0.53;;;;;;;;;;5036573;28;20083;-47
2023/05/09 12:41:23;;;;;;;4.55;0.70;;;;;;;;;;5055705;28;20036;-48
2023/05/09 12:44:06;;;;;;;2.70;0.77;;;;;;;;;;5040330;28;20671;-47
2023/05/09 12:46:35;;;;;;;2.65;0.60;;;;;;;;;;5050226;28;20055;-49
2023/05/09 12:49:04;;;;;;;3.25;0.73;;;;;;;;;;5041018;28;20059;-49
2023/05/09 12:51:31;;;;;;;4.57;0.63;;;;;;;;;;5047772;28;20064;-47
2023/05/09 12:54:03;;;;;;;3.58;0.30;;;;;;;;;;5051298;28;20044;-50
2023/05/09 12:56:34;;;;;;;2.78;0.70;;;;;;;;;;5052041;28;20075;-45
2023/05/09 12:59:02;;;;;;;3.28;0.80;;;;;;;;;;5051649;28;20044;-47
2023/05/09 13:01:30;;;;;;;5.90;0.60;;;;;;;;;;5042933;28;20870;-45
2023/05/09 13:04:01;;;;;;;3.40;0.80;;;;;;;;;;5042665;28;20029;-45
2023/05/09 13:06:30;;;;;;;3.13;0.82;;;;;;;;;;5033228;28;21027;-45
2023/05/09 13:09:00;;;;;;;2.90;0.73;;;;;;;;;;5037106;28;20068;-48
2023/05/09 13:11:28;;;;;;;3.60;0.68;;;;;;;;;;5047219;28;20048;-46
2023/05/09 13:13:58;;;;;;;2.30;0.40;;;;;;;;;;5052069;28;20048;-45
2023/05/09 13:16:25;;;;;;;2.87;0.60;;;;;;;;;;5048399;28;20140;-48
2023/05/09 13:18:53;;;;;;;3.38;0.85;;;;;;;;;;5051796;28;20047;-47
2023/05/09 13:21:21;;;;;;;2.30;0.50;;;;;;;;;;5050293;28;20060;-47
2023/05/09 13:23:50;;;;;;;2.33;0.43;;;;;;;;;;5052158;28;20056;-45
2023/05/09 13:26:17;;;;;;;1.83;0.40;;;;;;;;;;5061244;28;20114;-47
2023/05/09 13:28:47;;;;;;;3.30;0.50;;;;;;;;;;5052787;28;20116;-45
2023/05/09 13:31:16;;;;;;;2.40;0.40;;;;;;;;;;5046858;28;20040;-46
2023/05/09 13:33:44;;;;;;;2.53;0.50;;;;;;;;;;5032750;28;20064;-50
2023/05/09 13:36:14;;;;;;;2.17;0.50;;;;;;;;;;5037811;28;20057;-46
2023/05/09 13:38:44;;;;;;;2.45;0.45;;;;;;;;;;5044714;28;20106;-46
2023/05/09 13:41:18;;;;;;;3.07;0.40;;;;;;;;;;5032317;28;20047;-45
2023/05/09 13:43:46;;;;;;;3.33;0.50;;;;;;;;;;5082203;28;20035;-45
2023/05/09 13:46:15;;;;;;;2.83;0.60;;;;;;;;;;5039219;28;20072;-45
2023/05/09 13:48:43;;;;;;;2.60;0.50;;;;;;;;;;5049181;28;20076;-46
2023/05/09 13:51:11;;;;;;;2.88;0.50;;;;;;;;;;5053558;28;20036;-46
2023/05/09 13:53:39;;;;;;;2.53;0.40;;;;;;;;;;5046111;28;20048;-46
2023/05/09 13:56:08;;;;;;;2.38;0.50;;;;;;;;;;5051423;28;20571;-46
2023/05/09 13:58:35;;;;;;;2.67;0.50;;;;;;;;;;5046269;28;20517;-45
2023/05/09 14:01:03;;;;;;;1.98;0.43;;;;;;;;;;5047994;28;20051;-48
2023/05/09 14:03:32;;;;;;;2.47;0.60;;;;;;;;;;5049562;28;20127;-47
2023/05/09 14:06:00;;;;;;;2.97;0.50;;;;;;;;;;5052373;28;20040;-46
2023/05/09 14:08:28;;;;;;;3.65;0.68;;;;;;;;;;5050970;28;20065;-50
2023/05/09 14:10:56;;;;;;;2.67;0.55;;;;;;;;;;5042210;28;20053;-46
2023/05/09 14:13:23;;;;;;;2.05;0.40;;;;;;;;;;5051794;28;20128;-46
2023/05/09 14:15:51;;;;;;;2.60;0.55;;;;;;;;;;5049970;28;20126;-46
2023/05/09 14:18:19;;;;;;;2.40;0.60;;;;;;;;;;5041781;28;20056;-47
2023/05/09 14:20:49;;;;;;;2.22;0.40;;;;;;;;;;5080689;28;20830;-46
2023/05/09 14:23:18;;;;;;;2.40;0.50;;;;;;;;;;5037338;28;20072;-45
2023/05/09 14:25:45;;;;;;;3.42;0.73;;;;;;;;;;5044200;28;20071;-45
2023/05/09 14:28:13;;;;;;;2.70;0.50;;;;;;;;;;5043451;28;20076;-47
2023/05/09 14:30:42;;;;;;;3.70;0.63;;;;;;;;;;5045885;28;20123;-49
2023/05/09 14:33:10;;;;;;;2.65;0.40;;;;;;;;;;5044384;28;20052;-46
2023/05/09 14:35:38;;;;;;;4.43;0.60;;;;;;;;;;5031585;28;20148;-48
2023/05/09 14:38:11;;;;;;;3.35;0.50;;;;;;;;;;5045055;28;20052;-47
2023/05/09 14:40:38;;;;;;;2.92;0.75;;;;;;;;;;5032988;28;20503;-46
2023/05/09 14:43:08;;;;;;;3.27;0.50;;;;;;;;;;5039243;28;20358;-46
2023/05/09 14:45:35;;;;;;;2.13;0.40;;;;;;;;;;5058013;28;20051;-46
2023/05/09 14:48:03;;;;;;;3.80;0.52;;;;;;;;;;5054023;28;20032;-47
2023/05/09 14:50:32;;;;;;;2.45;0.50;;;;;;;;;;5054021;28;20048;-44